createdAt,value
2023-04-01T00:04:12.336Z,2.6
2023-04-01T00:09:11.728Z,2
2023-04-01T00:14:11.200Z,2.2
2023-04-01T00:19:10.621Z,2.3
2023-04-01T00:24:10.126Z,2.3
2023-04-01T00:29:09.556Z,2.2
2023-04-01T00:34:09.024Z,1.7
2023-04-01T00:39:08.445Z,1.5
2023-04-01T00:44:07.939Z,2.2
2023-04-01T00:49:07.394Z,1.3
2023-04-01T00:54:06.877Z,1.3
2023-04-01T00:59:06.314Z,1.2
2023-04-01T01:04:05.804Z,1
2023-04-01T01:09:05.269Z,1.2
2023-04-01T01:14:04.737Z,1.2
2023-04-01T01:19:04.204Z,0.8
2023-04-01T01:24:03.637Z,1.1
2023-04-01T01:29:03.064Z,1.2
2023-04-01T01:34:02.566Z,0.9
2023-04-01T01:39:01.914Z,0.8
2023-04-01T01:44:01.314Z,0.7
2023-04-01T01:49:00.778Z,1.2
2023-04-01T01:54:00.220Z,1.1
2023-04-01T01:58:59.591Z,1
2023-04-01T02:03:59.020Z,1
2023-04-01T02:08:58.453Z,1
2023-04-01T02:13:57.976Z,1
2023-04-01T02:18:57.299Z,0.8
2023-04-01T02:23:56.737Z,1
2023-04-01T02:28:56.195Z,1.3
2023-04-01T02:33:55.605Z,1.2
2023-04-01T02:38:54.984Z,1.9
2023-04-01T02:43:54.400Z,1.1
2023-04-01T02:48:53.740Z,1.6
2023-04-01T02:53:53.145Z,1.3
2023-04-01T02:58:52.527Z,1.5
2023-04-01T03:03:51.935Z,1.1
2023-04-01T03:08:51.311Z,1.2
2023-04-01T03:13:50.702Z,1.6
2023-04-01T03:18:50.176Z,1.7
2023-04-01T03:23:49.636Z,1.5
2023-04-01T03:28:48.961Z,1.8
2023-04-01T03:33:48.382Z,2
2023-04-01T03:38:47.822Z,2.1
2023-04-01T03:43:47.225Z,1.6
2023-04-01T03:48:46.696Z,1.9
2023-04-01T03:53:46.149Z,1.9
2023-04-01T03:58:45.474Z,1.7
2023-04-01T04:03:44.986Z,1.9
2023-04-01T04:08:44.307Z,1.6
2023-04-01T04:13:43.705Z,1.4
2023-04-01T04:18:43.131Z,1.1
2023-04-01T04:23:42.539Z,1.4
2023-04-01T04:28:41.861Z,0.9
2023-04-01T04:33:41.299Z,1.3
2023-04-01T04:38:40.640Z,2
2023-04-01T04:43:40.007Z,2.1
2023-04-01T04:48:39.398Z,15.4
2023-04-01T04:53:38.804Z,14
2023-04-01T04:58:38.195Z,3.6
2023-04-01T05:03:37.652Z,2.5
2023-04-01T05:08:36.973Z,2.3
2023-04-01T05:13:36.415Z,2.3
2023-04-01T05:18:35.791Z,2.7
2023-04-01T05:23:35.181Z,1.9
2023-04-01T05:28:34.576Z,1.7
2023-04-01T05:33:34.019Z,2.5
2023-04-01T05:38:33.396Z,2.2
2023-04-01T05:43:32.806Z,2.3
2023-04-01T05:48:32.156Z,2.5
2023-04-01T05:53:31.613Z,2.4
2023-04-01T05:58:31.008Z,1.8
2023-04-01T06:03:30.533Z,1.7
2023-04-01T06:08:29.821Z,2.3
2023-04-01T06:13:29.242Z,1.5
2023-04-01T06:18:28.648Z,1.8
2023-04-01T06:23:28.087Z,3.1
2023-04-01T06:28:27.485Z,2.4
2023-04-01T06:33:26.938Z,3.2
2023-04-01T06:38:26.346Z,3.1
2023-04-01T06:43:25.765Z,2
2023-04-01T06:48:25.187Z,2
2023-04-01T06:53:24.647Z,2.5
2023-04-01T06:58:24.088Z,3.3
2023-04-01T07:03:23.535Z,6
2023-04-01T07:08:23.005Z,4
2023-04-01T07:13:22.315Z,5.9
2023-04-01T07:18:21.772Z,6
2023-04-01T07:23:21.238Z,12.9
2023-04-01T07:28:20.733Z,5
2023-04-01T07:33:20.158Z,10.3
2023-04-01T07:38:19.621Z,27.7
2023-04-01T07:43:19.046Z,8.3
2023-04-01T07:48:18.543Z,7.1
2023-04-01T07:53:18.018Z,15.2
2023-04-01T07:58:17.390Z,14.1
2023-04-01T08:03:16.958Z,10.5
2023-04-01T08:08:16.344Z,19.9
2023-04-01T08:13:15.737Z,10.9
2023-04-01T08:18:15.209Z,10.2
2023-04-01T08:23:14.645Z,30.4
2023-04-01T08:28:14.008Z,4.6
2023-04-01T08:33:13.500Z,5
2023-04-01T08:38:12.948Z,14.3
2023-04-01T08:43:12.375Z,9.2
2023-04-01T08:48:11.809Z,43.8
2023-04-01T08:53:11.197Z,68.8
2023-04-01T08:58:10.636Z,91.3
2023-04-01T09:03:10.240Z,10.1
2023-04-01T09:08:09.519Z,20.3
2023-04-01T09:13:08.978Z,50
2023-04-01T09:18:08.700Z,14.3
2023-04-01T09:23:07.880Z,25
2023-04-01T09:28:07.292Z,6.2
2023-04-01T09:33:06.823Z,7
2023-04-01T09:38:06.265Z,29.9
2023-04-01T09:43:05.758Z,7.1
2023-04-01T09:48:05.315Z,6.7
2023-04-01T09:53:04.756Z,8
2023-04-01T09:58:04.214Z,5.1
2023-04-01T10:03:03.808Z,2.4
2023-04-01T10:08:03.249Z,5
2023-04-01T10:13:02.714Z,1.6
2023-04-01T10:18:02.286Z,2.3
2023-04-01T10:23:01.681Z,1
2023-04-01T10:28:01.178Z,1.7
2023-04-01T10:33:00.709Z,1.2
2023-04-01T10:38:00.192Z,1.9
2023-04-01T10:42:59.608Z,1.2
2023-04-01T10:47:59.142Z,1
2023-04-01T10:52:58.589Z,0.7
2023-04-01T10:57:58.086Z,1.7
2023-04-01T11:02:57.700Z,1.2
2023-04-01T11:08:06.177Z,0.9
2023-04-01T11:12:56.732Z,1.4
2023-04-01T11:17:56.220Z,1.7
2023-04-01T11:22:55.582Z,1.3
2023-04-01T11:27:55.102Z,1
2023-04-01T11:32:54.683Z,0.8
2023-04-01T11:37:54.341Z,0.9
2023-04-01T11:42:53.730Z,1.1
2023-04-01T11:47:53.202Z,2.7
2023-04-01T11:52:52.678Z,0.5
2023-04-01T11:57:52.218Z,0.7
2023-04-01T12:02:51.805Z,1.3
2023-04-01T12:07:51.193Z,1.2
2023-04-01T12:13:00.777Z,1.1
2023-04-01T12:17:50.237Z,0.9
2023-04-01T12:22:49.753Z,1.1
2023-04-01T12:32:48.776Z,1.8
2023-04-01T12:37:48.297Z,0.7
2023-04-01T12:42:47.801Z,0.6
2023-04-01T12:47:47.338Z,1.5
2023-04-01T12:52:46.832Z,1.6
2023-04-01T12:57:46.330Z,1
2023-04-01T13:02:45.918Z,0.9
2023-04-01T13:07:45.413Z,0.4
2023-04-01T13:12:45.012Z,0.6
2023-04-01T13:17:44.506Z,0.7
2023-04-01T13:22:43.988Z,0.9
2023-04-01T13:27:43.542Z,1.9
2023-04-01T13:32:44.015Z,1.4
2023-04-01T13:37:42.593Z,1.1
2023-04-01T13:42:42.153Z,0.8
2023-04-01T14:12:39.310Z,2.1
2023-04-01T14:27:37.806Z,1.7
2023-04-01T14:32:37.351Z,1.3
2023-04-01T14:37:36.847Z,1.9
2023-04-01T14:42:36.358Z,1.4
2023-04-01T14:47:35.897Z,1.2
2023-04-01T14:52:35.423Z,1.2
2023-04-01T14:57:34.948Z,2.5
2023-04-01T15:02:34.500Z,1.9
2023-04-01T15:07:33.972Z,1.2
2023-04-01T15:12:33.449Z,1.7
2023-04-01T15:17:33.000Z,3.3
2023-04-01T15:22:32.515Z,3.4
2023-04-01T15:27:31.931Z,1.4
2023-04-01T15:32:31.456Z,2.2
2023-04-01T15:37:30.935Z,1.6
2023-04-01T15:42:30.472Z,1.9
2023-04-01T15:47:29.941Z,1.4
2023-04-01T15:52:29.503Z,1.8
2023-04-01T15:57:29.073Z,5.2
2023-04-01T16:02:30.109Z,4.9
2023-04-01T16:07:27.920Z,4.1
2023-04-01T16:12:27.389Z,5.1
2023-04-01T16:17:27.182Z,6.7
2023-04-01T16:22:26.320Z,6.7
2023-04-01T16:27:25.822Z,13.3
2023-04-01T16:32:25.335Z,12.1
2023-04-01T16:37:24.747Z,11.3
2023-04-01T16:42:24.278Z,6.5
2023-04-01T16:47:23.708Z,6.9
2023-04-01T16:52:23.110Z,9.3
2023-04-01T16:57:22.557Z,7.4
2023-04-01T17:02:22.025Z,11.9
2023-04-01T17:07:21.384Z,10.1
2023-04-01T17:12:20.911Z,11.3
2023-04-01T17:17:20.292Z,10.4
2023-04-01T17:22:19.741Z,7.9
2023-04-01T17:27:19.218Z,10.4
2023-04-01T17:32:18.566Z,12.2
2023-04-01T17:37:18.031Z,13
2023-04-01T17:42:17.450Z,11.9
2023-04-01T17:47:16.897Z,8.6
2023-04-01T17:52:16.231Z,9
2023-04-01T17:57:15.715Z,8.2
2023-04-01T18:02:15.054Z,8.9
2023-04-01T18:07:14.528Z,6.1
2023-04-01T18:12:13.894Z,6.1
2023-04-01T18:17:13.288Z,7.4
2023-04-01T18:22:12.663Z,8.7
2023-04-01T18:27:12.030Z,7.4
2023-04-01T18:32:11.412Z,6.8
2023-04-01T18:37:10.785Z,6.1
2023-04-01T18:42:10.198Z,7
2023-04-01T18:47:09.540Z,15.5
2023-04-01T18:52:08.934Z,10.4
2023-04-01T18:57:08.338Z,9.1
2023-04-01T19:02:08.709Z,7
2023-04-01T19:07:06.971Z,7.8
2023-04-01T19:12:06.288Z,6
2023-04-01T19:17:07.702Z,7.4
2023-04-01T19:22:04.960Z,8.8
2023-04-01T19:27:04.328Z,9.4
2023-04-01T19:32:05.671Z,8.5
2023-04-01T19:37:02.988Z,15.1
2023-04-01T19:42:02.342Z,8.1
2023-04-01T19:47:01.704Z,6
2023-04-01T19:52:01.014Z,7.1
2023-04-01T19:57:00.385Z,5.6
2023-04-01T20:01:59.671Z,4.7
2023-04-01T20:06:58.985Z,4.9
2023-04-01T20:11:58.288Z,3.1
2023-04-01T20:16:57.638Z,3.8
2023-04-01T20:21:56.965Z,9.2
2023-04-01T20:26:56.264Z,7.3
2023-04-01T20:31:55.623Z,6.1
2023-04-01T20:36:54.935Z,5.6
2023-04-01T20:41:54.171Z,5.1
2023-04-01T20:46:53.487Z,6.5
2023-04-01T20:51:52.791Z,5.3
2023-04-01T20:56:52.088Z,5.2
2023-04-01T21:01:51.399Z,4
2023-04-01T21:06:50.654Z,2.9
2023-04-01T21:11:49.929Z,3.3
2023-04-01T21:16:49.196Z,2.5
2023-04-01T21:21:48.487Z,6.5
2023-04-01T21:26:47.868Z,4.6
2023-04-01T21:31:47.243Z,4.4
2023-04-01T21:36:46.401Z,2.7
2023-04-01T21:41:45.740Z,4.8
2023-04-01T21:46:45.008Z,8.3
2023-04-01T21:51:44.341Z,4
2023-04-01T21:56:43.657Z,4.7
2023-04-01T22:01:42.969Z,3.2
2023-04-01T22:06:42.239Z,3.3
2023-04-01T22:11:41.566Z,3.3
2023-04-01T22:16:41.013Z,3.2
2023-04-01T22:21:40.129Z,3.9
2023-04-01T22:26:39.430Z,3.3
2023-04-01T22:31:38.760Z,2.2
2023-04-01T22:36:37.957Z,1.8
2023-04-01T22:41:37.285Z,1.2
2023-04-01T22:46:36.702Z,2
2023-04-01T22:51:35.898Z,1.2
2023-04-01T22:56:35.211Z,1.6
2023-04-01T23:01:34.511Z,1.2
2023-04-01T23:06:33.810Z,1.5
2023-04-01T23:11:33.069Z,1.8
2023-04-01T23:16:32.345Z,1.5
2023-04-01T23:21:31.642Z,1.1
2023-04-01T23:26:30.901Z,1.7
2023-04-01T23:31:30.272Z,1.8
2023-04-01T23:36:29.524Z,1.5
2023-04-01T23:41:28.742Z,1.2
2023-04-01T23:46:28.071Z,0.8
2023-04-01T23:51:27.295Z,1.3
2023-04-01T23:56:26.520Z,1.2
